KBWG/BWG METAR and TAF weather

Enter ICAO airport designator
Station Type Date Time Source
KBWG METAR 2021/09/27 06:53 UTC NOAA

KBWG 270653Z AUTO 00000KT 10SM CLR 13/12 A3007 RMK AO2 SLP180 T01330117 $


Station Type Date Time Source
KBWG Decoded METAR 2021/09/27 06:53 UTC NOAA

BOWLING GREEN-WARREN CO RGNL, KY, United States (KBWG) 36-58N 086-25W 161M
Sep 27, 2021 - 02:53 AM EDT / 2021.09.27 0653 UTC
Wind: Calm:0
Visibility: 10 mile(s):0
Sky conditions: clear
Temperature: 55.9 F (13.3 C)
Dew Point: 53.1 F (11.7 C)
Relative Humidity: 90%
Pressure (altimeter): 30.07 in. Hg (1018 hPa)
ob: KBWG 270653Z AUTO 00000KT 10SM CLR 13/12 A3007 RMK AO2 SLP180 T01330117
cycle: 7

Station Type Date Time Source
KBWG TAF 2021/09/27 06:24 UTC NOAA

TAF KBWG 270520Z 2706/2806 16003KT P6SM SKC
FM271400 21008G15KT P6SM SKC
FM272200 20006KT P6SM SCT250

Example: see airport list